Terminal Aerodrome Forecast
Issued by NWS

Home | Current Version | Previous Version | Text Only | Print | Product List | Glossary On
Versions: 1 2 3 4 5 6 7 8 9 10 11 12 13 14 15 16 17 18 19 20 21 22 23 24 25
705
FTUS46 KSGX 302336
TAFSAN
TAF
KSAN 302336Z 3100/0106 22007KT P6SM SCT017 BKN200
     FM311000 VRB03KT P6SM BKN013
     FM311600 22005KT P6SM FEW015
     FM311900 24010KT P6SM SCT200
     FM010500 26007KT P6SM BKN015=

USA.gov is the U.S. government's official web portal to all federal, state and local government web resources and services.